createdAt,value
2019-01-14T00:00:23.563Z,57.76
2019-01-14T00:03:54.043Z,57.81
2019-01-14T00:07:24.223Z,57.84
2019-01-14T00:10:54.253Z,57.88
2019-01-14T00:14:24.285Z,57.92
2019-01-14T00:17:54.344Z,57.94
2019-01-14T00:21:24.404Z,57.97
2019-01-14T00:24:54.438Z,58
2019-01-14T00:28:24.676Z,58.01
2019-01-14T00:31:54.835Z,58.04
2019-01-14T00:35:24.914Z,58.09
2019-01-14T00:38:55.024Z,58.1
2019-01-14T00:42:25.095Z,58.12
2019-01-14T00:45:55.124Z,58.14
2019-01-14T00:49:25.155Z,58.17
2019-01-14T00:52:55.155Z,58.2
2019-01-14T00:56:25.175Z,58.25
2019-01-14T00:59:55.315Z,58.26
2019-01-14T01:03:25.465Z,58.29
2019-01-14T01:06:55.495Z,58.34
2019-01-14T01:10:25.520Z,58.34
2019-01-14T01:13:55.509Z,58.39
2019-01-14T01:17:25.655Z,58.41
2019-01-14T01:20:55.706Z,58.48
2019-01-14T01:24:25.706Z,58.51
2019-01-14T01:27:55.735Z,58.56
2019-01-14T01:31:27.060Z,58.6
2019-01-14T01:34:56.986Z,58.62
2019-01-14T01:38:27.136Z,58.65
2019-01-14T01:41:57.332Z,58.69
2019-01-14T01:45:27.416Z,58.75
2019-01-14T01:48:57.407Z,58.79
2019-01-14T01:52:27.517Z,58.84
2019-01-14T01:55:57.557Z,58.87
2019-01-14T01:59:27.717Z,58.89
2019-01-14T02:00:18.587Z,58.9
2019-01-14T02:03:48.657Z,58.93
2019-01-14T02:07:18.669Z,58.97
2019-01-14T02:10:48.607Z,59.02
2019-01-14T02:14:18.678Z,59.03
2019-01-14T02:17:49.927Z,59.07
2019-01-14T02:21:19.997Z,59.11
2019-01-14T02:24:50.138Z,59.11
2019-01-14T02:28:20.238Z,59.17
2019-01-14T02:31:51.315Z,59.21
2019-01-14T02:35:21.489Z,59.23
2019-01-14T02:38:51.428Z,59.27
2019-01-14T02:42:21.450Z,59.27
2019-01-14T02:45:51.474Z,59.33
2019-01-14T02:49:21.608Z,59.34
2019-01-14T02:52:51.701Z,59.38
2019-01-14T02:56:21.949Z,59.42
2019-01-14T02:59:52.029Z,59.45
2019-01-14T03:03:22.139Z,59.49
2019-01-14T03:06:57.598Z,59.52
2019-01-14T03:10:28.189Z,59.56
2019-01-14T03:13:58.149Z,59.59
2019-01-14T03:17:28.338Z,59.64
2019-01-14T03:20:58.289Z,59.65
2019-01-14T03:24:28.292Z,59.7
2019-01-14T03:27:58.329Z,59.72
2019-01-14T03:31:28.413Z,59.77
2019-01-14T03:34:58.552Z,59.8
2019-01-14T03:38:28.609Z,59.81
2019-01-14T03:41:58.740Z,59.84
2019-01-14T03:45:28.883Z,59.88
2019-01-14T03:48:58.886Z,59.89
2019-01-14T03:52:29.010Z,59.92
2019-01-14T03:55:58.990Z,59.95
2019-01-14T03:59:29.070Z,59.95
2019-01-14T04:00:16.842Z,59.96
2019-01-14T04:03:46.941Z,59.98
2019-01-14T04:07:17.092Z,60
2019-01-14T04:10:47.135Z,60.04
2019-01-14T04:14:17.380Z,60.06
2019-01-14T04:17:47.411Z,60.09
2019-01-14T04:21:17.435Z,60.07
2019-01-14T04:24:47.451Z,60.1
2019-01-14T04:28:17.510Z,60.11
2019-01-14T04:31:47.593Z,60.14
2019-01-14T04:35:20.161Z,60.15
2019-01-14T04:38:50.309Z,60.18
2019-01-14T04:42:20.400Z,60.2
2019-01-14T04:45:50.421Z,60.22
2019-01-14T04:49:20.491Z,60.23
2019-01-14T04:52:50.472Z,60.25
2019-01-14T04:56:20.599Z,60.27
2019-01-14T04:59:50.659Z,60.28
2019-01-14T05:03:20.691Z,60.29
2019-01-14T05:06:50.731Z,60.32
2019-01-14T05:10:20.871Z,60.36
2019-01-14T05:13:50.882Z,60.37
2019-01-14T05:17:20.913Z,60.39
2019-01-14T05:20:50.863Z,60.41
2019-01-14T05:24:20.942Z,60.43
2019-01-14T05:27:50.992Z,60.46
2019-01-14T05:31:21.049Z,60.46
2019-01-14T05:34:51.033Z,60.49
2019-01-14T05:38:22.023Z,60.52
2019-01-14T05:41:51.993Z,60.53
2019-01-14T05:45:22.076Z,60.55
2019-01-14T05:48:52.081Z,60.59
2019-01-14T05:52:22.213Z,60.61
2019-01-14T05:55:52.180Z,60.64
2019-01-14T05:59:22.213Z,60.65
2019-01-14T06:00:19.813Z,60.67
2019-01-14T06:03:49.883Z,60.7
2019-01-14T06:07:20.683Z,60.72
2019-01-14T06:10:50.853Z,60.77
2019-01-14T06:14:21.075Z,60.77
2019-01-14T06:17:51.055Z,60.81
2019-01-14T06:21:21.040Z,60.85
2019-01-14T06:24:51.045Z,60.85
2019-01-14T06:28:21.154Z,60.88
2019-01-14T06:31:51.135Z,60.91
2019-01-14T06:35:21.194Z,60.95
2019-01-14T06:38:52.214Z,60.97
2019-01-14T06:42:22.354Z,60.99
2019-01-14T06:45:52.324Z,61.01
2019-01-14T06:49:22.414Z,61.03
2019-01-14T06:52:52.515Z,61.04
2019-01-14T06:56:22.565Z,61.1
2019-01-14T06:59:52.686Z,61.12
2019-01-14T07:03:22.726Z,61.11
2019-01-14T07:06:52.746Z,61.14
2019-01-14T07:10:25.656Z,61.11
2019-01-14T07:13:55.796Z,61.13
2019-01-14T07:17:25.907Z,61.14
2019-01-14T07:20:55.913Z,61.17
2019-01-14T07:24:25.977Z,61.18
2019-01-14T07:27:56.047Z,61.16
2019-01-14T07:31:26.313Z,61.17
2019-01-14T07:34:56.247Z,61.16
2019-01-14T07:38:26.212Z,61.16
2019-01-14T07:41:57.129Z,61.18
2019-01-14T07:45:27.178Z,61.17
2019-01-14T07:48:57.277Z,61.18
2019-01-14T07:52:27.418Z,61.14
2019-01-14T07:55:57.496Z,61.17
2019-01-14T07:59:27.538Z,61.17
2019-01-14T08:00:18.728Z,61.18
2019-01-14T08:03:48.769Z,61.17
2019-01-14T08:07:18.999Z,61.19
2019-01-14T08:10:48.969Z,61.15
2019-01-14T08:14:19.011Z,61.14
2019-01-14T08:17:49.149Z,61.14
2019-01-14T08:21:19.199Z,61.15
2019-01-14T08:24:49.230Z,61.12
2019-01-14T08:28:19.360Z,61.11
2019-01-14T08:31:49.431Z,61.09
2019-01-14T08:35:19.790Z,61.05
2019-01-14T08:38:49.791Z,61.06
2019-01-14T08:42:21.002Z,61.02
2019-01-14T08:45:51.049Z,61
2019-01-14T08:49:20.959Z,61.01
2019-01-14T08:52:51.182Z,60.99
2019-01-14T08:56:21.382Z,60.98
2019-01-14T08:59:51.432Z,60.97
2019-01-14T09:03:21.543Z,60.93
2019-01-14T09:06:51.659Z,60.9
2019-01-14T09:10:23.705Z,60.89
2019-01-14T09:13:53.814Z,60.86
2019-01-14T09:17:23.889Z,60.85
2019-01-14T09:20:53.974Z,60.82
2019-01-14T09:24:23.969Z,60.81
2019-01-14T09:27:54.045Z,60.8
2019-01-14T09:31:25.335Z,60.75
2019-01-14T09:34:55.425Z,60.71
2019-01-14T09:38:25.525Z,60.73
2019-01-14T09:41:55.562Z,60.72
2019-01-14T09:45:25.677Z,60.72
2019-01-14T09:48:55.756Z,60.68
2019-01-14T09:52:25.866Z,60.67
2019-01-14T09:55:55.836Z,60.66
2019-01-14T09:59:25.926Z,60.66
2019-01-14T10:00:16.417Z,60.65
2019-01-14T10:03:46.467Z,60.64
2019-01-14T10:10:09.538Z,60.6
2019-01-14T10:13:39.529Z,60.58
2019-01-14T10:17:09.802Z,60.56
2019-01-14T10:20:39.749Z,60.56
2019-01-14T10:24:09.859Z,60.53
2019-01-14T10:27:39.960Z,60.54
2019-01-14T10:31:10.060Z,60.48
2019-01-14T10:34:39.980Z,60.47
2019-01-14T10:38:10.061Z,60.42
2019-01-14T10:41:40.241Z,60.43
2019-01-14T10:45:13.480Z,60.41
2019-01-14T10:48:44.481Z,60.35
2019-01-14T10:52:14.502Z,60.35
2019-01-14T10:55:44.469Z,60.28
2019-01-14T10:59:14.552Z,60.25
2019-01-14T11:02:48.008Z,60.21
2019-01-14T11:06:18.384Z,60.14
2019-01-14T11:09:48.534Z,60.09
2019-01-14T11:13:18.744Z,60.01
2019-01-14T11:16:48.815Z,59.92
2019-01-14T11:20:21.665Z,59.86
2019-01-14T11:23:51.826Z,59.76
2019-01-14T11:27:21.916Z,59.63
2019-01-14T11:30:51.987Z,59.55
2019-01-14T11:34:22.007Z,59.44
2019-01-14T11:37:52.198Z,59.32
2019-01-14T11:41:23.437Z,59.19
2019-01-14T11:44:53.440Z,59.05
2019-01-14T11:48:23.519Z,58.94
2019-01-14T11:51:54.639Z,58.82
2019-01-14T11:55:24.640Z,58.72
2019-01-14T11:58:54.641Z,58.63
2019-01-14T12:00:18.931Z,58.54
2019-01-14T12:03:49.021Z,58.42
2019-01-14T12:07:19.132Z,58.32
2019-01-14T12:10:49.182Z,58.21
2019-01-14T12:14:19.383Z,58.07
2019-01-14T12:17:49.439Z,57.92
2019-01-14T12:21:19.574Z,57.79
2019-01-14T12:24:49.797Z,57.66
2019-01-14T12:28:19.875Z,57.54
2019-01-14T12:31:49.966Z,57.38
2019-01-14T12:35:19.986Z,57.23
2019-01-14T12:38:50.077Z,57.06
2019-01-14T12:42:20.073Z,56.91
2019-01-14T12:45:50.207Z,56.75
2019-01-14T12:49:20.208Z,56.58
2019-01-14T12:52:52.000Z,56.42
2019-01-14T12:56:22.040Z,56.25
2019-01-14T12:59:52.240Z,56.11
2019-01-14T13:03:22.270Z,55.97
2019-01-14T13:06:52.511Z,55.89
2019-01-14T13:10:22.592Z,55.75
2019-01-14T13:13:52.702Z,55.66
2019-01-14T13:17:22.692Z,55.53
2019-01-14T13:20:52.743Z,55.44
2019-01-14T13:24:22.814Z,55.38
2019-01-14T13:27:53.014Z,55.28
2019-01-14T13:31:23.084Z,55.22
2019-01-14T13:34:53.041Z,55.12
2019-01-14T13:38:23.155Z,55.06
2019-01-14T13:41:53.305Z,54.98
2019-01-14T13:45:23.320Z,54.89
2019-01-14T13:48:53.366Z,54.8
2019-01-14T13:52:23.556Z,54.74
2019-01-14T13:55:59.454Z,54.67
2019-01-14T13:59:29.707Z,54.6
2019-01-14T14:00:19.359Z,54.58
2019-01-14T14:03:49.518Z,54.5
2019-01-14T14:07:19.708Z,54.47
2019-01-14T14:10:49.839Z,54.41
2019-01-14T14:14:19.938Z,54.36
2019-01-14T14:17:49.977Z,54.33
2019-01-14T14:21:20.070Z,54.28
2019-01-14T14:24:50.060Z,54.27
2019-01-14T14:28:20.130Z,54.24
2019-01-14T14:31:50.211Z,54.23
2019-01-14T14:35:20.378Z,54.18
2019-01-14T14:38:50.497Z,54.18
2019-01-14T14:42:20.481Z,54.17
2019-01-14T14:45:50.563Z,54.16
2019-01-14T14:49:20.682Z,54.12
2019-01-14T14:52:50.842Z,54.14
2019-01-14T14:56:21.943Z,54.13
2019-01-14T14:59:51.984Z,54.12
2019-01-14T15:03:22.044Z,54.12
2019-01-14T15:06:52.138Z,54.13
2019-01-14T15:10:22.206Z,54.13
2019-01-14T15:13:52.305Z,54.14
2019-01-14T15:17:22.445Z,54.17
2019-01-14T15:20:52.585Z,54.19
2019-01-14T15:24:22.686Z,54.19
2019-01-14T15:27:52.696Z,54.23
2019-01-14T15:31:22.796Z,54.24
2019-01-14T15:34:52.927Z,54.24
2019-01-14T15:38:22.948Z,54.27
2019-01-14T15:41:53.169Z,54.3
2019-01-14T15:45:24.208Z,54.33
2019-01-14T15:48:54.308Z,54.35
2019-01-14T15:52:24.328Z,54.36
2019-01-14T15:55:54.448Z,54.4
2019-01-14T15:59:24.729Z,54.43
2019-01-14T16:00:16.919Z,54.43
2019-01-14T16:03:47.038Z,54.46
2019-01-14T16:07:17.139Z,54.47
2019-01-14T16:10:47.190Z,54.47
2019-01-14T16:14:17.280Z,54.5
2019-01-14T16:17:47.386Z,54.49
2019-01-14T16:21:17.441Z,54.51
2019-01-14T16:24:47.571Z,54.54
2019-01-14T16:28:17.502Z,54.55
2019-01-14T16:31:47.563Z,54.53
2019-01-14T16:35:17.703Z,54.52
2019-01-14T16:38:47.852Z,54.52
2019-01-14T16:42:17.942Z,54.54
2019-01-14T16:45:48.033Z,54.53
2019-01-14T16:49:18.093Z,54.53
2019-01-14T16:52:48.163Z,54.53
2019-01-14T16:56:18.243Z,54.53
2019-01-14T16:59:49.253Z,54.54
2019-01-14T17:03:19.424Z,54.53
2019-01-14T17:06:49.504Z,54.53
2019-01-14T17:10:25.127Z,54.55
2019-01-14T17:13:55.605Z,54.54
2019-01-14T17:17:25.665Z,54.54
2019-01-14T17:20:55.818Z,54.54
2019-01-14T17:24:25.815Z,54.55
2019-01-14T17:27:55.903Z,54.57
2019-01-14T17:31:26.010Z,54.56
2019-01-14T17:34:56.073Z,54.54
2019-01-14T17:38:26.218Z,54.55
2019-01-14T17:41:56.434Z,54.56
2019-01-14T17:45:26.548Z,54.56
2019-01-14T17:48:56.719Z,54.56
2019-01-14T17:52:26.735Z,54.57
2019-01-14T17:55:56.875Z,54.59
2019-01-14T17:59:26.954Z,54.59
2019-01-14T18:00:20.024Z,54.61
2019-01-14T18:03:50.063Z,54.62
2019-01-14T18:07:20.184Z,54.62
2019-01-14T18:10:50.267Z,54.63
2019-01-14T18:14:20.214Z,54.63
2019-01-14T18:17:50.379Z,54.63
2019-01-14T18:21:20.485Z,54.64
2019-01-14T18:24:50.615Z,54.65
2019-01-14T18:28:20.567Z,54.62
2019-01-14T18:31:50.731Z,54.64
2019-01-14T18:35:20.905Z,54.66
2019-01-14T18:38:50.972Z,54.63
2019-01-14T18:42:20.963Z,54.63
2019-01-14T18:45:51.092Z,54.62
2019-01-14T18:49:21.196Z,54.62
2019-01-14T18:52:51.190Z,54.61
2019-01-14T18:56:21.199Z,54.61
2019-01-14T18:59:51.431Z,54.6
2019-01-14T19:03:21.592Z,54.59
2019-01-14T19:06:51.753Z,54.57
2019-01-14T19:10:21.767Z,54.56
2019-01-14T19:13:51.736Z,54.56
2019-01-14T19:17:21.807Z,54.54
2019-01-14T19:20:51.917Z,54.52
2019-01-14T19:24:21.904Z,54.51
2019-01-14T19:27:52.081Z,54.49
2019-01-14T19:31:22.188Z,54.46
2019-01-14T19:34:52.204Z,54.45
2019-01-14T19:38:22.255Z,54.43
2019-01-14T19:41:52.510Z,54.39
2019-01-14T19:45:22.660Z,54.39
2019-01-14T19:48:52.739Z,54.34
2019-01-14T19:52:22.822Z,54.34
2019-01-14T19:55:52.942Z,54.27
2019-01-14T19:59:23.034Z,54.26
2019-01-14T20:00:19.135Z,54.25
2019-01-14T20:03:50.187Z,54.23
2019-01-14T20:07:20.268Z,54.22
2019-01-14T20:10:50.398Z,54.17
2019-01-14T20:14:20.450Z,54.15
2019-01-14T20:17:50.501Z,54.15
2019-01-14T20:21:20.702Z,54.11
2019-01-14T20:24:50.804Z,54.07
2019-01-14T20:28:20.955Z,54.06
2019-01-14T20:31:50.950Z,54.05
2019-01-14T20:35:21.038Z,54.03
2019-01-14T20:38:51.070Z,54
2019-01-14T20:42:21.111Z,53.98
2019-01-14T20:45:51.153Z,53.94
2019-01-14T20:49:21.184Z,53.91
2019-01-14T20:52:51.426Z,53.89
2019-01-14T20:56:21.427Z,53.86
2019-01-14T20:59:51.508Z,53.8
2019-01-14T21:03:21.600Z,53.77
2019-01-14T21:06:52.601Z,53.75
2019-01-14T21:10:22.763Z,53.72
2019-01-14T21:13:53.304Z,53.69
2019-01-14T21:17:23.371Z,53.68
2019-01-14T21:20:53.638Z,53.65
2019-01-14T21:24:23.828Z,53.64
2019-01-14T21:27:54.101Z,53.64
2019-01-14T21:31:24.281Z,53.61
2019-01-14T21:34:54.453Z,53.6
2019-01-14T21:38:24.675Z,53.57
2019-01-14T21:41:54.836Z,53.53
2019-01-14T21:45:25.060Z,53.52
2019-01-14T21:48:55.219Z,53.48
2019-01-14T21:52:25.427Z,53.46
2019-01-14T21:55:55.652Z,53.42
2019-01-14T21:59:25.763Z,53.41
2019-01-14T22:00:18.453Z,53.41
2019-01-14T22:03:48.615Z,53.38
2019-01-14T22:07:18.877Z,53.34
2019-01-14T22:10:49.008Z,53.32
2019-01-14T22:14:19.140Z,53.31
2019-01-14T22:17:49.311Z,53.31
2019-01-14T22:21:19.392Z,53.28
2019-01-14T22:24:49.544Z,53.27
2019-01-14T22:28:19.655Z,53.27
2019-01-14T22:31:49.836Z,53.27
2019-01-14T22:35:20.142Z,53.27
2019-01-14T22:38:50.289Z,53.26
2019-01-14T22:42:20.420Z,53.24
2019-01-14T22:45:50.721Z,53.24
2019-01-14T22:49:20.853Z,53.26
2019-01-14T22:52:50.974Z,53.26
2019-01-14T22:56:21.055Z,53.28
2019-01-14T22:59:51.137Z,53.28
2019-01-14T23:03:21.245Z,53.29
2019-01-14T23:06:51.369Z,53.3
2019-01-14T23:10:22.304Z,53.33
2019-01-14T23:13:52.311Z,53.33
2019-01-14T23:17:22.310Z,53.34
2019-01-14T23:20:52.315Z,53.37
2019-01-14T23:24:22.486Z,53.39
2019-01-14T23:27:52.668Z,53.4
2019-01-14T23:31:22.720Z,53.44
2019-01-14T23:34:52.740Z,53.47
2019-01-14T23:38:22.752Z,53.52
2019-01-14T23:42:00.171Z,53.55
2019-01-14T23:45:30.604Z,53.58
2019-01-14T23:49:00.656Z,53.6
2019-01-14T23:52:30.697Z,53.63
2019-01-14T23:56:00.728Z,53.62
2019-01-14T23:59:30.840Z,53.65
